Time;durP1;ratioP1;P1;durP2;ratioP2;P2;SDS_P1;SDS_P2;PMS_P1;PMS_P2;Temp;Humidity;BMP_temperature;BMP_pressure;BME280_temperature;BME280_humidity;BME280_pressure;Samples;Min_cycle;Max_cycle;Signal;HPM_P1;HPM_P2
2023/09/01 00:02:53;;;;;;;3.58;1.85;;;25.80;59.40;;;;;;10467168;28;20525;-32
2023/09/01 00:07:55;;;;;;;3.72;1.80;;;25.70;59.40;;;;;;10453328;28;20132;-34
2023/09/01 00:12:59;;;;;;;4.55;1.67;;;25.70;59.40;;;;;;10452500;28;20848;-40
2023/09/01 00:18:01;;;;;;;3.22;1.63;;;25.80;59.30;;;;;;10451715;28;20410;-36
2023/09/01 00:23:03;;;;;;;2.95;1.70;;;25.70;60.00;;;;;;10457546;28;20102;-33
2023/09/01 00:28:06;;;;;;;3.95;1.80;;;25.70;59.40;;;;;;10460515;28;20374;-33
2023/09/01 00:33:08;;;;;;;2.88;1.55;;;25.70;59.40;;;;;;10453581;28;20083;-38
2023/09/01 00:38:10;;;;;;;2.60;1.67;;;25.60;59.30;;;;;;10452859;28;20076;-34
2023/09/01 00:43:13;;;;;;;2.95;1.95;;;25.60;59.40;;;;;;10452062;28;20087;-35
2023/09/01 00:48:15;;;;;;;2.60;1.50;;;25.60;59.50;;;;;;10452583;28;20072;-34
2023/09/01 00:53:18;;;;;;;3.42;1.60;;;25.60;59.50;;;;;;10454106;28;20706;-32
2023/09/01 00:58:22;;;;;;;5.88;1.67;;;25.60;59.40;;;;;;10457166;28;20045;-37
2023/09/01 01:03:23;;;;;;;4.35;1.70;;;25.50;59.40;;;;;;10450399;28;20580;-33
2023/09/01 01:08:34;;;;;;;2.47;1.35;;;25.50;59.50;;;;;;10455413;28;20624;-38
2023/09/01 01:13:44;;;;;;;2.05;1.10;;;25.50;59.50;;;;;;10437369;28;20092;-39
2023/09/01 01:18:48;;;;;;;1.92;1.35;;;25.50;59.50;;;;;;10447929;28;20048;-37
2023/09/01 01:23:52;;;;;;;3.97;1.48;;;25.50;59.50;;;;;;10455879;28;20474;-32
2023/09/01 01:28:54;;;;;;;4.53;1.27;;;25.50;59.50;;;;;;10455813;28;20077;-34
2023/09/01 01:33:59;;;;;;;4.55;1.17;;;25.40;59.40;;;;;;10450164;28;20083;-39
2023/09/01 01:39:06;;;;;;;5.10;1.42;;;25.40;59.50;;;;;;10457822;28;20052;-34
2023/09/01 01:44:10;;;;;;;1.75;1.20;;;25.40;59.50;;;;;;10455973;28;20136;-36
2023/09/01 01:49:12;;;;;;;2.25;1.30;;;25.40;59.50;;;;;;10447668;28;20470;-44
2023/09/01 01:54:15;;;;;;;;;;;25.40;59.40;;;;;;10449735;28;20070;-36
2023/09/01 01:59:17;;;;;;;2.17;1.10;;;25.40;59.60;;;;;;10449986;28;19934;-32
2023/09/01 02:04:18;;;;;;;3.67;1.20;;;25.30;59.50;;;;;;10437600;28;20053;-35
2023/09/01 02:09:21;;;;;;;;;;;25.30;59.50;;;;;;10462880;28;20083;-34
2023/09/01 02:14:23;;;;;;;1.58;0.93;;;25.30;59.60;;;;;;10450578;28;19921;-32
2023/09/01 02:19:28;;;;;;;2.75;1.30;;;25.30;59.50;;;;;;10450029;28;20076;-31
2023/09/01 02:24:31;;;;;;;3.50;1.38;;;25.30;59.60;;;;;;10447832;28;20073;-31
2023/09/01 02:29:33;;;;;;;3.35;1.30;;;25.30;59.60;;;;;;10458342;28;20065;-32
2023/09/01 02:34:35;;;;;;;1.98;1.15;;;25.20;59.60;;;;;;10458108;28;20106;-31
2023/09/01 02:39:38;;;;;;;1.55;1.00;;;25.20;59.60;;;;;;10448393;28;20072;-31
2023/09/01 02:44:40;;;;;;;4.88;1.48;;;25.20;59.70;;;;;;10455910;28;20124;-31
2023/09/01 02:49:42;;;;;;;2.92;1.27;;;25.20;59.60;;;;;;10451488;28;20049;-32
2023/09/01 02:54:45;;;;;;;1.65;1.15;;;25.20;60.30;;;;;;10447418;28;20085;-31
2023/09/01 03:15:30;;;;;;;2.63;1.30;;;24.90;59.80;;;;;;10504658;27;20106;-34
2023/09/01 03:20:34;;;;;;;2.83;1.35;;;25.00;60.30;;;;;;10482805;28;20127;-40
2023/09/01 03:25:35;;;;;;;1.77;1.02;;;25.10;60.10;;;;;;10483703;28;20102;-32
2023/09/01 03:30:39;;;;;;;1.52;1.10;;;25.10;60.00;;;;;;10482266;28;20127;-32
2023/09/01 03:35:40;;;;;;;1.92;1.10;;;25.10;60.10;;;;;;10482592;28;20379;-36
2023/09/01 03:40:42;;;;;;;;;;;25.00;60.00;;;;;;10486879;28;20477;-36
2023/09/01 03:45:46;;;;;;;1.58;0.90;;;25.00;60.70;;;;;;10487265;28;20370;-32
2023/09/01 03:51:06;;;;;;;2.50;1.25;;;25.00;60.00;;;;;;10482109;28;20053;-31
2023/09/01 03:56:09;;;;;;;2.42;1.00;;;25.00;60.20;;;;;;10481706;28;20052;-39
2023/09/01 04:01:13;;;;;;;1.33;1.00;;;25.00;60.00;;;;;;10492279;28;20120;-31
2023/09/01 04:06:15;;;;;;;1.30;1.00;;;25.00;60.00;;;;;;10485458;28;20553;-36
2023/09/01 04:11:17;;;;;;;4.10;1.85;;;25.00;60.10;;;;;;10486151;28;20137;-36
2023/09/01 04:16:20;;;;;;;2.72;0.98;;;25.00;60.10;;;;;;10481422;28;20082;-34
2023/09/01 04:21:22;;;;;;;1.88;1.23;;;25.00;60.50;;;;;;10493800;28;20078;-42
2023/09/01 04:26:24;;;;;;;2.50;1.42;;;24.90;60.20;;;;;;10453644;28;20047;-39
2023/09/01 04:31:29;;;;;;;2.25;1.05;;;24.90;60.20;;;;;;10456206;28;20049;-37
2023/09/01 04:36:31;;;;;;;1.20;0.73;;;24.90;60.20;;;;;;10440438;28;20130;-34
2023/09/01 04:41:33;;;;;;;1.95;1.60;;;24.90;60.20;;;;;;10454829;28;20575;-33
2023/09/01 04:46:36;;;;;;;;;;;24.90;60.30;;;;;;10452808;28;20128;-34
2023/09/01 04:51:37;;;;;;;1.10;0.80;;;24.80;60.10;;;;;;10452085;28;20024;-34
2023/09/01 04:56:39;;;;;;;1.63;1.00;;;24.80;60.40;;;;;;10453360;28;20040;-34
2023/09/01 05:01:44;;;;;;;1.38;1.05;;;24.80;60.40;;;;;;10447624;28;20056;-33
2023/09/01 05:06:45;;;;;;;1.02;0.90;;;24.80;60.40;;;;;;10447736;28;20045;-33
2023/09/01 05:11:47;;;;;;;;;;;24.70;60.10;;;;;;10447097;28;20409;-41
2023/09/01 05:16:50;;;;;;;1.95;1.10;;;24.80;60.40;;;;;;10455046;28;20003;-35
2023/09/01 05:21:52;;;;;;;3.35;1.13;;;24.70;60.40;;;;;;10450768;28;20494;-37
2023/09/01 05:26:54;;;;;;;2.33;0.93;;;24.70;60.50;;;;;;10452959;28;20433;-35
2023/09/01 05:31:57;;;;;;;1.73;1.20;;;24.70;60.20;;;;;;10453107;28;20053;-39
2023/09/01 05:36:59;;;;;;;2.25;1.00;;;24.70;60.40;;;;;;10435538;28;20568;-43
2023/09/01 05:42:00;;;;;;;;;;;24.70;60.30;;;;;;10454131;28;20080;-32
2023/09/01 05:47:04;;;;;;;7.38;2.03;;;24.70;60.50;;;;;;10446765;28;19921;-39
2023/09/01 05:52:06;;;;;;;2.03;1.10;;;24.50;60.20;;;;;;10451408;28;20301;-45
2023/09/01 05:57:08;;;;;;;3.15;0.90;;;24.40;60.60;;;;;;10452105;28;20068;-33
2023/09/01 06:02:11;;;;;;;;;;;24.50;60.80;;;;;;10447383;28;20077;-36
2023/09/01 06:07:13;;;;;;;1.35;0.85;;;24.50;60.60;;;;;;10460377;28;19929;-35
2023/09/01 06:12:15;;;;;;;;;;;24.70;60.50;;;;;;10449349;28;20080;-34
2023/09/01 06:17:18;;;;;;;1.27;0.90;;;24.70;60.60;;;;;;10449531;28;19934;-33
2023/09/01 06:22:20;;;;;;;2.45;1.40;;;24.70;60.70;;;;;;10423852;28;20107;-34
2023/09/01 06:27:22;;;;;;;;;;;24.70;60.70;;;;;;10444850;28;20095;-32
2023/09/01 06:32:25;;;;;;;3.08;1.20;;;24.70;60.70;;;;;;10447163;28;19921;-36
2023/09/01 06:37:27;;;;;;;2.95;1.05;;;24.70;60.80;;;;;;10445703;28;20127;-39
2023/09/01 06:42:29;;;;;;;3.10;1.15;;;24.70;60.90;;;;;;10445361;28;20080;-35
2023/09/01 06:47:32;;;;;;;;;;;24.70;61.10;;;;;;10451836;28;20072;-32
2023/09/01 06:52:34;;;;;;;1.85;1.00;;;24.70;61.20;;;;;;10446450;28;19976;-39
2023/09/01 06:57:36;;;;;;;6.97;1.70;;;24.70;61.20;;;;;;10452018;28;20036;-33
2023/09/01 07:02:39;;;;;;;;;;;24.70;61.30;;;;;;10447465;28;20084;-36
2023/09/01 07:07:40;;;;;;;2.50;1.40;;;24.70;61.30;;;;;;10458417;28;19920;-35
2023/09/01 07:12:42;;;;;;;;;;;24.70;61.30;;;;;;10446240;28;20497;-37
2023/09/01 07:17:45;;;;;;;5.55;1.65;;;24.70;61.40;;;;;;10441662;28;19972;-33
2023/09/01 07:22:47;;;;;;;4.63;1.35;;;24.70;61.30;;;;;;10444553;28;20161;-38
2023/09/01 07:27:49;;;;;;;3.70;1.30;;;24.70;61.30;;;;;;10444241;28;20065;-34
2023/09/01 07:32:52;;;;;;;;;;;24.70;61.40;;;;;;10438978;28;20103;-35
2023/09/01 07:37:55;;;;;;;4.55;1.50;;;24.70;61.40;;;;;;10445284;28;19952;-39
2023/09/01 07:42:58;;;;;;;3.72;1.40;;;24.70;61.50;;;;;;10459850;28;20048;-36
2023/09/01 07:48:02;;;;;;;2.22;1.67;;;24.70;61.60;;;;;;10446108;28;20040;-37
2023/09/01 07:53:04;;;;;;;2.28;1.33;;;24.70;61.60;;;;;;10443037;28;20383;-35
2023/09/01 07:58:06;;;;;;;2.88;1.20;;;24.70;61.60;;;;;;10447152;28;20045;-34
2023/09/01 08:03:11;;;;;;;3.00;1.08;;;24.70;61.70;;;;;;10453395;28;20076;-37
2023/09/01 08:08:13;;;;;;;2.88;1.48;;;24.70;61.60;;;;;;10459936;28;20044;-39
2023/09/01 08:13:15;;;;;;;2.88;1.27;;;24.70;61.60;;;;;;10453366;28;20383;-42
2023/09/01 08:18:18;;;;;;;6.47;1.42;;;24.70;61.70;;;;;;10461115;28;20835;-39
2023/09/01 08:23:21;;;;;;;3.28;1.10;;;24.80;61.70;;;;;;10440843;28;20122;-35
2023/09/01 08:28:23;;;;;;;3.70;1.50;;;24.80;61.80;;;;;;10444661;28;20076;-32
2023/09/01 08:33:26;;;;;;;;;;;24.80;61.90;;;;;;10452254;28;20088;-31
2023/09/01 08:38:28;;;;;;;5.70;1.60;;;24.70;61.90;;;;;;10450800;28;20028;-38
2023/09/01 08:43:32;;;;;;;;;;;24.80;62.00;;;;;;10454760;28;20048;-32
2023/09/01 08:48:36;;;;;;;3.33;1.17;;;24.80;62.60;;;;;;10451361;28;20042;-33
2023/09/01 08:53:39;;;;;;;4.43;1.15;;;24.80;62.00;;;;;;10451419;28;20080;-34
2023/09/01 08:58:41;;;;;;;4.15;1.27;;;24.70;62.00;;;;;;10449209;28;20053;-36
2023/09/01 09:03:44;;;;;;;4.15;1.50;;;24.80;62.00;;;;;;10449977;28;20056;-35
2023/09/01 09:08:55;;;;;;;3.95;1.40;;;24.80;62.10;;;;;;10449436;28;20138;-35
2023/09/01 09:13:57;;;;;;;3.05;1.10;;;24.80;62.00;;;;;;10443911;28;20096;-37
2023/09/01 09:19:09;;;;;;;3.03;1.33;;;24.80;62.10;;;;;;10458883;28;20076;-33
2023/09/01 09:24:11;;;;;;;;;;;24.80;62.10;;;;;;10448630;28;20095;-38
2023/09/01 09:29:15;;;;;;;3.00;1.20;;;24.80;62.20;;;;;;10449452;28;20023;-37
2023/09/01 09:34:19;;;;;;;5.43;1.25;;;24.90;62.20;;;;;;10448979;28;20506;-35
2023/09/01 09:39:22;;;;;;;1.45;1.10;;;24.90;62.30;;;;;;10448884;28;20423;-32
2023/09/01 09:44:26;;;;;;;2.63;1.23;;;24.90;62.40;;;;;;10451594;28;20052;-38
2023/09/01 09:49:32;;;;;;;2.45;1.30;;;24.90;62.40;;;;;;10448524;28;20077;-37
2023/09/01 09:54:37;;;;;;;1.80;1.13;;;24.90;62.40;;;;;;10447647;28;20147;-34
2023/09/01 09:59:44;;;;;;;1.58;0.73;;;25.00;62.30;;;;;;10448748;28;20083;-38
2023/09/01 10:04:48;;;;;;;2.67;1.20;;;25.00;62.30;;;;;;10451266;28;20044;-31
2023/09/01 10:09:50;;;;;;;5.35;0.98;;;25.00;62.30;;;;;;10449360;28;20126;-37
2023/09/01 10:14:54;;;;;;;1.35;0.93;;;25.00;62.70;;;;;;10447644;28;20065;-30
2023/09/01 10:19:57;;;;;;;2.08;1.15;;;25.00;62.40;;;;;;10437722;28;20501;-32
2023/09/01 10:25:14;;;;;;;2.75;1.38;;;25.00;62.30;;;;;;10445176;28;20509;-40
2023/09/01 10:30:27;;;;;;;1.92;1.00;;;25.10;62.30;;;;;;10448138;28;20048;-37
2023/09/01 10:35:41;;;;;;;2.53;1.38;;;25.10;62.40;;;;;;10449243;28;20481;-32
2023/09/01 10:40:44;;;;;;;3.72;1.70;;;25.10;62.20;;;;;;10445793;28;20052;-34
2023/09/01 10:46:26;;;;;;;5.20;1.67;;;25.20;62.40;;;;;;10447899;28;20052;-42
2023/09/01 10:51:29;;;;;;;2.57;1.63;;;25.20;62.10;;;;;;10444951;28;20041;-36
2023/09/01 10:56:31;;;;;;;5.95;2.10;;;25.20;62.20;;;;;;10445614;28;20581;-35
2023/09/01 11:01:36;;;;;;;3.78;2.53;;;25.20;62.20;;;;;;10445551;28;20053;-32
2023/09/01 11:07:07;;;;;;;6.78;5.93;;;25.30;62.10;;;;;;10455487;28;20076;-36
2023/09/01 11:12:10;;;;;;;6.13;2.77;;;25.20;62.60;;;;;;10445202;28;20053;-32
2023/09/01 11:17:13;;;;;;;4.75;3.22;;;25.40;62.00;;;;;;10446763;28;20468;-35
2023/09/01 11:22:15;;;;;;;3.50;3.20;;;25.40;61.90;;;;;;10443815;28;20064;-34
2023/09/01 11:27:17;;;;;;;5.38;4.15;;;25.40;61.80;;;;;;10445991;28;20478;-38
2023/09/01 11:32:27;;;;;;;4.32;3.42;;;25.30;62.70;;;;;;10445792;28;20080;-33
2023/09/01 11:37:36;;;;;;;4.35;3.95;;;25.10;62.80;;;;;;10451727;28;20557;-33
2023/09/01 11:42:39;;;;;;;6.05;3.40;;;25.40;62.60;;;;;;10447537;28;20076;-41
2023/09/01 11:47:43;;;;;;;3.78;3.28;;;25.50;63.10;;;;;;10454306;28;20090;-40
2023/09/01 11:52:54;;;;;;;3.70;3.40;;;25.50;63.10;;;;;;10459771;28;21026;-39
2023/09/01 11:57:56;;;;;;;;;;;25.50;63.30;;;;;;10448539;28;20095;-45
2023/09/01 12:03:00;;;;;;;4.30;3.70;;;25.50;63.50;;;;;;10470209;28;20395;-37
2023/09/01 12:08:03;;;;;;;4.75;3.38;;;25.50;64.10;;;;;;10449820;28;20052;-33
2023/09/01 12:13:07;;;;;;;5.60;3.50;;;25.50;63.90;;;;;;10445795;28;20448;-39
2023/09/01 12:18:34;;;;;;;5.03;3.13;;;25.60;63.70;;;;;;10446651;28;20095;-34
2023/09/01 12:23:37;;;;;;;5.68;3.63;;;25.60;63.50;;;;;;10446373;28;20131;-38
2023/09/01 12:28:40;;;;;;;3.90;3.50;;;25.50;63.60;;;;;;10450543;28;20041;-33
2023/09/01 12:33:43;;;;;;;7.40;3.78;;;24.90;65.90;;;;;;10450225;28;20041;-38
2023/09/01 12:38:45;;;;;;;6.47;4.43;;;25.30;64.80;;;;;;10450110;28;20561;-36
2023/09/01 12:43:47;;;;;;;6.47;3.53;;;25.50;64.50;;;;;;10458590;28;20102;-43
2023/09/01 12:48:50;;;;;;;9.57;7.55;;;25.40;64.40;;;;;;10452037;28;20052;-38
2023/09/01 12:53:52;;;;;;;3.85;3.30;;;25.40;67.30;;;;;;10449248;28;20060;-31
2023/09/01 12:58:53;;;;;;;;;;;25.40;64.40;;;;;;10450134;28;20079;-31
2023/09/01 13:03:57;;;;;;;4.38;3.20;;;25.50;63.80;;;;;;10450011;28;19920;-34
2023/09/01 13:08:59;;;;;;;3.78;3.28;;;25.70;63.50;;;;;;10453816;28;20095;-39
2023/09/01 13:14:01;;;;;;;4.88;3.70;;;25.70;63.40;;;;;;10451255;28;20510;-34
2023/09/01 13:19:04;;;;;;;6.45;3.55;;;25.70;63.90;;;;;;10453343;28;20070;-36
2023/09/01 13:24:06;;;;;;;4.03;3.38;;;25.90;63.20;;;;;;10459285;28;20041;-36
2023/09/01 13:29:08;;;;;;;3.78;2.92;;;26.00;62.90;;;;;;10448497;28;20136;-32
2023/09/01 13:34:11;;;;;;;3.05;2.75;;;26.00;62.90;;;;;;10447002;28;20084;-31
2023/09/01 13:39:13;;;;;;;3.22;2.92;;;25.90;62.70;;;;;;10448459;28;20095;-38
2023/09/01 13:44:15;;;;;;;3.50;2.90;;;26.00;62.90;;;;;;10449099;28;20077;-39
2023/09/01 13:49:19;;;;;;;3.80;2.80;;;26.00;62.90;;;;;;10450348;28;20048;-38
2023/09/01 13:54:21;;;;;;;3.45;2.90;;;26.00;63.00;;;;;;10451525;28;20057;-40
2023/09/01 13:59:23;;;;;;;4.20;2.90;;;26.00;63.00;;;;;;10446045;28;20126;-40
2023/09/01 14:04:26;;;;;;;3.78;2.60;;;26.10;63.00;;;;;;10446491;28;20041;-32
2023/09/01 14:09:28;;;;;;;2.42;2.22;;;26.10;62.80;;;;;;10442232;28;20045;-40
2023/09/01 14:14:30;;;;;;;3.05;2.55;;;26.10;62.90;;;;;;10443072;28;20072;-45
2023/09/01 14:19:33;;;;;;;4.90;2.55;;;26.10;63.10;;;;;;10448740;28;20512;-36
2023/09/01 14:24:35;;;;;;;3.72;2.03;;;26.10;63.20;;;;;;10444829;28;20102;-39
2023/09/01 14:29:38;;;;;;;2.38;2.17;;;26.10;63.10;;;;;;10445068;28;20103;-36
2023/09/01 14:34:42;;;;;;;2.38;2.17;;;26.10;63.40;;;;;;10444033;28;20048;-30
2023/09/01 14:39:43;;;;;;;3.63;2.13;;;26.10;63.60;;;;;;10442717;28;20041;-31
2023/09/01 14:44:45;;;;;;;5.38;2.70;;;26.10;63.70;;;;;;10453308;28;20134;-35
2023/09/01 14:49:48;;;;;;;4.10;3.20;;;26.10;64.00;;;;;;10445413;28;20077;-38
2023/09/01 14:54:51;;;;;;;5.50;2.70;;;25.90;65.20;;;;;;10442095;28;20145;-38
2023/09/01 14:59:53;;;;;;;13.43;5.93;;;26.00;65.30;;;;;;10444553;28;20495;-36
2023/09/01 15:04:56;;;;;;;4.53;2.95;;;25.90;66.30;;;;;;10446191;28;20048;-33
2023/09/01 15:09:58;;;;;;;3.80;2.90;;;26.00;65.90;;;;;;10445304;28;20126;-38
2023/09/01 15:14:59;;;;;;;4.15;2.83;;;26.00;66.10;;;;;;10444982;28;20148;-31
2023/09/01 15:20:04;;;;;;;4.03;2.92;;;26.00;66.20;;;;;;10444037;28;20143;-31
2023/09/01 15:25:06;;;;;;;6.63;3.33;;;26.10;66.50;;;;;;10432229;28;20048;-32
2023/09/01 15:30:10;;;;;;;10.07;4.05;;;26.10;66.60;;;;;;10435583;28;20496;-33
2023/09/01 15:35:13;;;;;;;7.00;3.70;;;26.10;66.70;;;;;;10439529;28;20147;-38
2023/09/01 15:40:15;;;;;;;5.65;3.15;;;26.20;66.90;;;;;;10441128;28;20041;-36
2023/09/01 15:45:17;;;;;;;6.35;3.72;;;26.20;67.20;;;;;;10446097;28;20482;-36
2023/09/01 15:50:20;;;;;;;10.30;3.97;;;26.10;67.30;;;;;;10443212;28;20065;-36
2023/09/01 15:55:22;;;;;;;6.28;3.67;;;26.10;67.50;;;;;;10442366;28;20085;-32
2023/09/01 16:00:24;;;;;;;7.32;3.88;;;26.20;67.90;;;;;;10443672;28;20076;-38
2023/09/01 16:05:28;;;;;;;6.15;3.67;;;26.10;68.00;;;;;;10442649;28;20133;-35
2023/09/01 16:10:30;;;;;;;7.55;4.07;;;26.10;68.10;;;;;;10459796;28;20080;-33
2023/09/01 16:15:32;;;;;;;10.65;3.67;;;26.10;68.30;;;;;;10444020;28;20061;-32
2023/09/01 16:20:35;;;;;;;10.05;3.95;;;26.10;68.60;;;;;;10450057;28;20120;-34
2023/09/01 16:25:37;;;;;;;8.57;3.85;;;26.10;69.00;;;;;;10446013;28;20098;-33
2023/09/01 16:30:38;;;;;;;8.60;3.17;;;26.10;69.10;;;;;;10451637;28;20055;-32
2023/09/01 16:35:54;;;;;;;7.88;3.90;;;26.10;69.40;;;;;;10444695;28;20128;-32
2023/09/01 16:40:58;;;;;;;7.03;3.80;;;26.10;69.90;;;;;;10450352;28;20435;-35
2023/09/01 16:46:00;;;;;;;8.57;4.15;;;26.10;70.60;;;;;;10441652;28;20517;-36
2023/09/01 16:51:04;;;;;;;6.40;3.88;;;26.10;71.20;;;;;;10448837;28;20136;-33
2023/09/01 16:56:06;;;;;;;7.70;3.72;;;26.10;72.00;;;;;;10449088;28;20061;-40
2023/09/01 17:01:08;;;;;;;7.50;4.03;;;26.10;72.10;;;;;;10448905;28;20045;-37
2023/09/01 17:06:11;;;;;;;6.32;3.65;;;26.10;72.10;;;;;;10450879;28;20129;-36
2023/09/01 17:11:12;;;;;;;8.48;3.47;;;26.10;72.30;;;;;;10451092;28;20122;-35
2023/09/01 17:16:14;;;;;;;8.27;3.45;;;26.10;72.60;;;;;;10452291;28;20052;-34
2023/09/01 17:21:18;;;;;;;6.95;3.03;;;26.10;72.80;;;;;;10448762;28;20056;-35
2023/09/01 17:26:20;;;;;;;4.55;3.03;;;26.00;73.80;;;;;;10446161;28;20047;-38
2023/09/01 17:31:21;;;;;;;2.85;2.60;;;26.00;73.50;;;;;;10447251;28;20040;-32
2023/09/01 17:36:25;;;;;;;4.05;2.30;;;26.00;73.50;;;;;;10449305;28;20049;-33
2023/09/01 17:41:37;;;;;;;4.65;2.47;;;26.00;74.00;;;;;;10447534;28;20128;-36
2023/09/01 17:46:39;;;;;;;4.38;2.38;;;26.00;74.30;;;;;;10450641;28;20045;-30
2023/09/01 17:51:42;;;;;;;7.97;2.72;;;26.00;74.80;;;;;;10441707;28;20395;-32
2023/09/01 17:56:45;;;;;;;2.42;1.80;;;26.00;74.90;;;;;;10446505;28;20464;-35
2023/09/01 18:01:49;;;;;;;1.85;1.40;;;25.90;75.00;;;;;;10445631;28;20053;-35
2023/09/01 18:06:52;;;;;;;4.38;1.45;;;26.00;75.30;;;;;;10456869;28;20412;-40
2023/09/01 18:11:54;;;;;;;2.45;1.38;;;25.90;75.30;;;;;;10435168;28;20061;-36
2023/09/01 18:16:56;;;;;;;5.90;1.50;;;25.90;75.50;;;;;;10452726;28;20146;-34
2023/09/01 18:22:02;;;;;;;2.85;1.30;;;25.90;75.70;;;;;;10444312;28;20049;-34
2023/09/01 18:27:07;;;;;;;4.13;1.20;;;25.90;75.90;;;;;;10443779;28;20427;-33
2023/09/01 18:32:10;;;;;;;2.13;1.00;;;25.90;76.10;;;;;;10447737;28;20128;-31
2023/09/01 18:37:18;;;;;;;1.60;0.75;;;25.90;76.30;;;;;;10446212;28;20080;-35
2023/09/01 18:42:32;;;;;;;1.80;0.88;;;25.90;76.40;;;;;;10441923;28;20045;-34
2023/09/01 18:47:35;;;;;;;2.88;1.10;;;25.90;76.70;;;;;;10446078;28;20619;-35
2023/09/01 18:52:38;;;;;;;2.17;0.77;;;25.90;77.00;;;;;;10439970;28;20056;-36
2023/09/01 18:57:40;;;;;;;4.35;1.00;;;25.90;76.80;;;;;;10437009;28;20080;-36
2023/09/01 19:02:44;;;;;;;3.35;1.08;;;25.90;76.80;;;;;;10441288;28;20776;-35
2023/09/01 19:07:47;;;;;;;4.35;1.40;;;25.90;77.50;;;;;;10435333;28;20080;-35
2023/09/01 19:12:51;;;;;;;6.57;1.50;;;25.90;77.60;;;;;;10434542;28;20138;-33
2023/09/01 19:17:53;;;;;;;8.02;1.35;;;25.90;77.70;;;;;;10440746;28;20095;-33
2023/09/01 19:23:02;;;;;;;11.75;2.47;;;25.90;78.10;;;;;;10442422;28;20086;-32
2023/09/01 19:28:05;;;;;;;14.88;2.13;;;25.90;78.40;;;;;;10441736;28;20083;-40
2023/09/01 19:33:07;;;;;;;13.52;2.03;;;25.90;78.40;;;;;;10442461;28;20449;-35
2023/09/01 19:38:13;;;;;;;16.88;2.47;;;25.90;78.50;;;;;;10442252;28;20060;-31
2023/09/01 19:43:15;;;;;;;14.95;2.15;;;25.90;78.60;;;;;;10439240;28;20406;-36
2023/09/01 19:48:18;;;;;;;8.48;1.95;;;25.80;78.70;;;;;;10436309;28;20376;-32
2023/09/01 19:53:25;;;;;;;8.70;1.73;;;25.90;78.90;;;;;;10444537;28;20071;-34
2023/09/01 19:58:28;;;;;;;13.50;1.83;;;25.80;79.10;;;;;;10447977;28;20533;-39
2023/09/01 20:03:31;;;;;;;9.05;2.13;;;25.80;79.10;;;;;;10446848;28;20129;-34
2023/09/01 20:08:34;;;;;;;10.48;1.70;;;25.80;79.20;;;;;;10449445;28;20513;-35
2023/09/01 20:13:37;;;;;;;9.77;2.00;;;25.80;79.40;;;;;;10449144;28;20103;-37
2023/09/01 20:18:39;;;;;;;8.50;1.70;;;25.80;79.50;;;;;;10456355;28;20137;-33
2023/09/01 20:23:42;;;;;;;10.30;1.88;;;25.80;79.60;;;;;;10441837;28;20132;-32
2023/09/01 20:28:44;;;;;;;6.18;1.35;;;25.80;79.90;;;;;;10449406;28;20060;-39
2023/09/01 20:33:46;;;;;;;5.38;2.33;;;25.70;80.10;;;;;;10447684;28;20053;-36
2023/09/01 20:38:49;;;;;;;5.25;1.73;;;25.80;80.20;;;;;;10446862;28;20464;-40
2023/09/01 20:43:51;;;;;;;6.47;1.17;;;25.70;80.40;;;;;;10443340;28;20053;-40
2023/09/01 20:48:53;;;;;;;6.55;1.40;;;25.70;80.20;;;;;;10448393;28;20041;-37
2023/09/01 20:53:56;;;;;;;14.32;1.65;;;25.70;80.50;;;;;;10446920;28;20481;-36
2023/09/01 20:58:58;;;;;;;3.72;1.40;;;25.70;80.70;;;;;;10450059;28;20469;-36
2023/09/01 21:04:00;;;;;;;4.35;1.27;;;25.60;80.30;;;;;;10452093;28;20057;-41
2023/09/01 21:09:04;;;;;;;6.75;1.30;;;25.70;79.50;;;;;;10458723;28;20077;-32
2023/09/01 21:14:06;;;;;;;3.83;1.20;;;25.60;79.30;;;;;;10450758;28;20053;-35
2023/09/01 21:19:07;;;;;;;4.18;1.65;;;25.60;79.00;;;;;;10451420;28;20132;-38
2023/09/01 21:24:11;;;;;;;4.32;1.45;;;25.60;78.80;;;;;;10449913;28;20541;-31
2023/09/01 21:29:12;;;;;;;2.75;1.08;;;25.60;78.80;;;;;;10448222;28;20485;-33
2023/09/01 21:34:14;;;;;;;2.80;1.30;;;25.50;78.70;;;;;;10446737;28;20147;-35
2023/09/01 21:39:17;;;;;;;6.85;1.10;;;25.60;78.50;;;;;;10450420;28;20141;-34
2023/09/01 21:44:19;;;;;;;3.42;1.20;;;25.50;78.90;;;;;;10442620;28;20072;-37
2023/09/01 21:49:21;;;;;;;2.60;1.05;;;25.50;78.00;;;;;;10439159;28;20076;-32
2023/09/01 21:54:24;;;;;;;;;;;25.50;78.10;;;;;;10444297;28;20120;-34
2023/09/01 21:59:26;;;;;;;4.28;1.10;;;25.50;78.00;;;;;;10446141;28;19929;-35
2023/09/01 22:04:28;;;;;;;3.42;1.27;;;25.50;77.80;;;;;;10445394;28;20136;-39
2023/09/01 22:09:31;;;;;;;;;;;25.40;77.80;;;;;;10447663;28;20080;-34
2023/09/01 22:14:33;;;;;;;2.88;1.20;;;25.50;77.80;;;;;;10447976;28;19951;-34
2023/09/01 22:19:34;;;;;;;2.45;1.10;;;25.40;78.30;;;;;;10444679;28;20118;-42
2023/09/01 22:24:38;;;;;;;2.40;1.08;;;25.40;77.60;;;;;;10441384;28;20049;-38
2023/09/01 22:29:40;;;;;;;2.88;1.20;;;25.40;77.50;;;;;;10444072;28;20498;-36
2023/09/01 22:34:42;;;;;;;5.18;1.42;;;25.40;77.50;;;;;;10447945;28;20067;-41
2023/09/01 22:39:45;;;;;;;3.33;1.20;;;25.40;77.50;;;;;;10456468;28;20847;-34
2023/09/01 22:44:47;;;;;;;3.55;1.38;;;25.40;77.40;;;;;;10449707;28;20076;-33
2023/09/01 22:49:48;;;;;;;3.05;1.08;;;25.40;77.30;;;;;;10454743;28;20051;-37
2023/09/01 22:54:51;;;;;;;;;;;25.30;77.30;;;;;;10449244;28;20080;-32
2023/09/01 22:59:53;;;;;;;1.80;1.30;;;25.40;77.40;;;;;;10451867;28;19928;-31
2023/09/01 23:04:55;;;;;;;4.10;1.60;;;25.30;77.40;;;;;;10450046;28;20374;-37
2023/09/01 23:09:58;;;;;;;3.80;1.63;;;25.30;77.20;;;;;;10444249;28;20136;-38
2023/09/01 23:15:00;;;;;;;1.55;1.20;;;25.30;77.10;;;;;;10443413;28;20503;-32
2023/09/01 23:20:02;;;;;;;;;;;25.30;77.10;;;;;;10446936;28;20064;-36
2023/09/01 23:25:06;;;;;;;2.88;1.65;;;25.20;77.10;;;;;;10442150;28;20274;-39
2023/09/01 23:30:09;;;;;;;1.70;1.33;;;25.30;77.20;;;;;;10456231;28;20127;-33
2023/09/01 23:35:11;;;;;;;1.83;1.40;;;25.20;77.10;;;;;;10457712;28;20049;-37
2023/09/01 23:40:14;;;;;;;2.53;1.30;;;25.20;77.00;;;;;;10453395;28;20418;-34
2023/09/01 23:45:16;;;;;;;2.70;1.98;;;25.20;77.00;;;;;;10448728;28;20141;-35
2023/09/01 23:50:18;;;;;;;1.52;1.17;;;25.20;77.00;;;;;;10454186;28;20045;-36
2023/09/01 23:55:21;;;;;;;3.10;1.50;;;25.20;77.00;;;;;;10450383;28;20470;-35
